createdAt,value
2022-10-23T00:01:18.482Z,43.03
2022-10-23T00:03:47.019Z,376.10
2022-10-23T00:06:16.109Z,218.00
2022-10-23T00:08:44.618Z,138.83
2022-10-23T00:11:14.834Z,34.63
2022-10-23T00:13:43.338Z,194.23
2022-10-23T00:16:11.744Z,217.33
2022-10-23T00:18:41.685Z,17.03
2022-10-23T00:21:11.731Z,200.90
2022-10-23T00:23:40.495Z,117.43
2022-10-23T00:26:11.147Z,90.87
2022-10-23T00:28:39.507Z,55.90
2022-10-23T00:31:07.726Z,138.70
2022-10-23T00:33:35.867Z,120.50
2022-10-23T00:36:07.675Z,118.13
2022-10-23T00:38:36.236Z,57.83
2022-10-23T00:41:05.002Z,187.53
2022-10-23T00:43:34.395Z,149.00
2022-10-23T00:46:02.874Z,138.17
2022-10-23T00:48:30.994Z,113.57
2022-10-23T00:50:58.990Z,70.23
2022-10-23T00:53:28.375Z,54.97
2022-10-23T00:55:57.717Z,182.13
2022-10-23T00:58:25.760Z,207.37
2022-10-23T01:00:56.006Z,218.23
2022-10-23T01:03:28.935Z,84.83
2022-10-23T01:06:06.270Z,54.83
2022-10-23T01:08:42.711Z,62.80
2022-10-23T01:11:16.145Z,63.87
2022-10-23T01:13:50.751Z,53.67
2022-10-23T01:16:24.777Z,20.40
2022-10-23T01:19:00.135Z,124.07
2022-10-23T01:21:36.047Z,72.77
2022-10-23T01:24:25.466Z,23.00
2022-10-23T01:27:20.277Z,131.83
2022-10-23T01:29:53.939Z,20.00
2022-10-23T01:32:31.540Z,46.37
2022-10-23T01:35:05.845Z,121.60
2022-10-23T01:37:41.329Z,234.77
2022-10-23T01:40:15.613Z,89.53
2022-10-23T01:42:50.727Z,40.20
2022-10-23T01:45:25.292Z,7.77
2022-10-23T01:47:56.334Z,41.43
2022-10-23T01:50:26.646Z,74.90
2022-10-23T01:52:54.710Z,72.70
2022-10-23T01:55:25.691Z,133.80
2022-10-23T01:57:55.783Z,29.27
2022-10-23T02:00:23.875Z,73.57
2022-10-23T02:02:53.534Z,22.63
2022-10-23T02:05:25.281Z,159.07
2022-10-23T02:07:54.853Z,86.83
2022-10-23T02:10:24.275Z,61.17
2022-10-23T02:13:00.862Z,85.67
2022-10-23T02:15:34.010Z,103.47
2022-10-23T02:18:09.660Z,113.90
2022-10-23T02:20:41.653Z,6.90
2022-10-23T02:23:19.798Z,31.03
2022-10-23T02:25:54.638Z,29.23
2022-10-23T02:28:29.893Z,187.30
2022-10-23T02:31:00.686Z,55.00
2022-10-23T02:33:31.383Z,44.80
2022-10-23T02:35:59.444Z,130.97
2022-10-23T02:38:31.183Z,64.13
2022-10-23T02:41:17.559Z,28.23
2022-10-23T02:43:54.549Z,23.40
2022-10-23T02:46:30.156Z,46.37
2022-10-23T02:49:05.298Z,155.67
2022-10-23T02:51:41.694Z,17.20
2022-10-23T02:54:17.783Z,104.13
2022-10-23T02:56:52.899Z,136.63
2022-10-23T02:59:28.511Z,54.40
2022-10-23T03:02:03.720Z,10.27
2022-10-23T03:04:33.811Z,146.10
2022-10-23T03:07:01.959Z,117.40
2022-10-23T03:09:30.053Z,132.40
2022-10-23T03:11:58.075Z,141.40
2022-10-23T03:14:27.516Z,35.07
2022-10-23T03:16:55.554Z,10.10
2022-10-23T03:19:23.592Z,19.90
2022-10-23T03:21:51.590Z,59.40
2022-10-23T03:24:19.611Z,179.07
2022-10-23T03:26:47.586Z,121.27
2022-10-23T03:29:15.685Z,71.87
2022-10-23T03:31:45.229Z,64.87
2022-10-23T03:34:14.978Z,47.93
2022-10-23T03:36:43.005Z,287.83
2022-10-23T03:39:11.200Z,39.53
2022-10-23T03:41:39.189Z,80.53
2022-10-23T03:44:07.294Z,107.57
2022-10-23T03:46:35.499Z,250.67
2022-10-23T03:49:05.731Z,15.47
2022-10-23T03:51:33.811Z,49.90
2022-10-23T03:54:01.853Z,84.50
2022-10-23T03:56:29.859Z,57.10
2022-10-23T03:58:57.877Z,69.10
2022-10-23T04:01:26.202Z,50.43
2022-10-23T04:03:54.354Z,108.47
2022-10-23T04:06:23.736Z,36.67
2022-10-23T04:08:51.844Z,52.33
2022-10-23T04:11:19.847Z,134.60
2022-10-23T04:13:48.493Z,46.97
2022-10-23T04:16:16.529Z,52.40
2022-10-23T04:18:44.675Z,78.37
2022-10-23T04:21:13.599Z,54.77
2022-10-23T04:23:43.054Z,60.80
2022-10-23T04:26:11.100Z,37.53
2022-10-23T04:28:39.123Z,25.00
2022-10-23T04:31:07.721Z,41.97
2022-10-23T04:33:35.699Z,69.93
2022-10-23T04:36:03.723Z,37.43
2022-10-23T04:38:31.952Z,131.23
2022-10-23T04:41:02.347Z,40.37
2022-10-23T04:43:30.413Z,172.67
2022-10-23T04:45:58.442Z,67.00
2022-10-23T04:48:28.465Z,47.63
2022-10-23T04:50:58.503Z,128.93
2022-10-23T04:53:26.957Z,69.47
2022-10-23T04:55:57.074Z,10.97
2022-10-23T04:58:28.134Z,84.10
2022-10-23T05:00:56.793Z,7.77
2022-10-23T05:03:25.755Z,105.07
2022-10-23T05:05:55.699Z,135.77
2022-10-23T05:08:24.148Z,109.47
2022-10-23T05:10:52.508Z,103.93
2022-10-23T05:13:21.167Z,235.93
2022-10-23T05:15:51.839Z,104.67
2022-10-23T05:18:24.923Z,48.20
2022-10-23T05:20:57.779Z,25.50
2022-10-23T05:23:27.064Z,82.67
2022-10-23T05:25:55.125Z,258.60
2022-10-23T05:28:23.116Z,253.40
2022-10-23T05:30:52.733Z,85.93
2022-10-23T05:33:20.900Z,30.57
2022-10-23T05:35:48.972Z,151.50
2022-10-23T05:38:17.632Z,103.30
2022-10-23T05:40:45.819Z,351.70
2022-10-23T05:43:13.832Z,94.97
2022-10-23T05:45:41.823Z,45.77
2022-10-23T05:48:22.470Z,62.43
2022-10-23T05:51:04.257Z,63.37
2022-10-23T05:53:32.236Z,130.83
2022-10-23T05:56:06.225Z,46.07
2022-10-23T05:58:34.749Z,110.37
2022-10-23T06:01:07.184Z,201.97
2022-10-23T06:03:37.593Z,115.73
2022-10-23T06:06:06.547Z,217.83
2022-10-23T06:08:35.185Z,62.30
2022-10-23T06:11:07.870Z,247.10
2022-10-23T06:13:36.212Z,82.77
2022-10-23T06:16:10.809Z,37.73
2022-10-23T06:18:40.427Z,113.33
2022-10-23T06:21:08.883Z,31.40
2022-10-23T06:23:38.370Z,74.00
2022-10-23T06:26:07.703Z,194.93
2022-10-23T06:28:35.727Z,181.37
2022-10-23T06:31:06.729Z,11.17
2022-10-23T06:33:34.851Z,10.40
2022-10-23T06:36:05.539Z,8.87
2022-10-23T06:38:36.850Z,45.83
2022-10-23T06:41:06.129Z,213.83
2022-10-23T06:43:34.256Z,157.97
2022-10-23T06:46:03.370Z,234.50
2022-10-23T06:48:31.893Z,236.87
2022-10-23T06:51:00.658Z,103.70
2022-10-23T06:53:30.049Z,251.03
2022-10-23T06:56:00.385Z,118.10
2022-10-23T06:58:28.455Z,224.90
2022-10-23T07:00:56.985Z,132.77
2022-10-23T07:03:25.164Z,112.07
2022-10-23T07:05:53.155Z,38.53
2022-10-23T07:08:21.782Z,220.17
2022-10-23T07:10:51.262Z,92.47
2022-10-23T07:13:19.275Z,209.33
2022-10-23T07:15:47.405Z,354.27
2022-10-23T07:18:16.918Z,353.07
2022-10-23T07:20:46.981Z,96.03
2022-10-23T07:23:16.259Z,85.03
2022-10-23T07:25:44.291Z,222.97
2022-10-23T07:28:13.777Z,385.43
2022-10-23T07:30:42.937Z,308.07
2022-10-23T07:33:12.482Z,407.40
2022-10-23T07:35:41.011Z,301.90
2022-10-23T07:38:09.086Z,349.23
2022-10-23T07:40:37.079Z,178.50
2022-10-23T07:43:05.140Z,597.70
2022-10-23T07:45:34.577Z,291.83
2022-10-23T07:48:02.611Z,373.13
2022-10-23T07:50:30.736Z,279.80
2022-10-23T07:52:58.867Z,216.43
2022-10-23T07:55:26.990Z,237.97
2022-10-23T07:57:55.003Z,435.30
2022-10-23T08:02:57.489Z,66.47
2022-10-23T08:05:25.919Z,446.10
2022-10-23T08:07:53.914Z,393.73
2022-10-23T08:10:21.937Z,71.87
2022-10-23T08:12:49.943Z,323.43
2022-10-23T08:15:18.038Z,465.33
2022-10-23T08:17:46.119Z,199.77
2022-10-23T08:20:15.802Z,307.93
2022-10-23T08:22:43.814Z,341.70
2022-10-23T08:25:12.217Z,145.83
2022-10-23T08:27:40.714Z,354.30
2022-10-23T08:30:09.935Z,231.60
2022-10-23T08:32:37.951Z,203.97
2022-10-23T08:35:06.598Z,323.03
2022-10-23T08:37:35.990Z,340.23
2022-10-23T08:40:04.270Z,204.60
2022-10-23T08:42:32.488Z,158.70
2022-10-23T08:45:06.211Z,294.50
2022-10-23T08:47:40.086Z,403.07
2022-10-23T08:50:15.135Z,274.50
2022-10-23T08:52:50.465Z,536.77
2022-10-23T08:55:24.751Z,409.00
2022-10-23T08:57:59.638Z,267.10
2022-10-23T09:00:28.860Z,321.97
2022-10-23T09:02:57.770Z,410.03
2022-10-23T09:05:30.129Z,372.40
2022-10-23T09:08:13.612Z,332.97
2022-10-23T09:10:59.462Z,342.63
2022-10-23T09:13:49.773Z,398.87
2022-10-23T09:16:26.478Z,390.73
2022-10-23T09:18:55.763Z,450.43
2022-10-23T09:21:27.227Z,307.33
2022-10-23T09:23:56.872Z,417.17
2022-10-23T09:26:24.927Z,666.17
2022-10-23T09:28:55.397Z,374.57
2022-10-23T09:31:23.429Z,644.87
2022-10-23T09:33:59.757Z,517.43
2022-10-23T09:36:29.442Z,361.47
2022-10-23T09:39:00.322Z,587.53
2022-10-23T09:41:31.105Z,352.02
2022-10-23T09:44:04.032Z,473.37
2022-10-23T09:46:42.305Z,530.73
2022-10-23T09:49:18.719Z,440.70
2022-10-23T09:52:01.792Z,561.30
2022-10-23T09:54:34.668Z,263.67
2022-10-23T09:57:13.688Z,438.57
2022-10-23T09:59:43.045Z,552.57
2022-10-23T10:02:22.492Z,695.15
2022-10-23T10:04:50.556Z,435.73
2022-10-23T10:07:22.785Z,534.60
2022-10-23T10:09:54.125Z,666.20
2022-10-23T10:12:50.649Z,457.70
2022-10-23T10:15:26.407Z,439.37
2022-10-23T10:18:03.833Z,387.08
2022-10-23T10:20:47.892Z,376.52
2022-10-23T10:23:24.279Z,462.77
2022-10-23T10:26:03.045Z,560.72
2022-10-23T10:28:49.766Z,503.02
2022-10-23T10:31:25.008Z,393.13
2022-10-23T10:34:07.843Z,535.00
2022-10-23T10:36:47.793Z,556.88
2022-10-23T10:39:25.379Z,543.53
2022-10-23T10:42:08.906Z,490.25
2022-10-23T10:44:54.463Z,441.33
2022-10-23T10:47:27.375Z,481.40
2022-10-23T10:50:09.988Z,500.70
2022-10-23T10:52:49.361Z,461.15
2022-10-23T10:55:25.332Z,619.80
2022-10-23T10:58:03.853Z,441.88
2022-10-23T11:00:35.424Z,504.10
2022-10-23T11:03:12.447Z,634.20
2022-10-23T11:05:43.642Z,581.97
2022-10-23T11:08:16.812Z,596.95
2022-10-23T11:10:47.870Z,581.55
2022-10-23T11:13:27.379Z,528.58
2022-10-23T11:16:01.704Z,240.60
2022-10-23T11:18:31.562Z,247.38
2022-10-23T11:21:08.525Z,501.50
2022-10-23T11:24:01.611Z,621.85
2022-10-23T11:26:42.436Z,497.80
2022-10-23T11:29:34.195Z,558.95
2022-10-23T11:32:22.845Z,537.05
2022-10-23T11:35:05.755Z,551.90
2022-10-23T11:37:33.923Z,591.70
2022-10-23T11:40:14.517Z,581.10
2022-10-23T11:42:49.239Z,554.58
2022-10-23T11:45:34.260Z,639.35
2022-10-23T11:48:05.031Z,498.10
2022-10-23T11:50:50.531Z,507.58
2022-10-23T11:53:38.273Z,452.02
2022-10-23T11:56:24.915Z,390.50
2022-10-23T11:58:54.252Z,488.23
2022-10-23T12:01:33.501Z,355.10
2022-10-23T12:04:05.353Z,585.20
2022-10-23T12:06:40.109Z,684.60
2022-10-23T12:09:21.080Z,613.97
2022-10-23T12:11:51.461Z,542.55
2022-10-23T12:14:32.446Z,492.73
2022-10-23T12:17:02.233Z,582.38
2022-10-23T12:19:31.879Z,490.58
2022-10-23T12:22:03.075Z,560.17
2022-10-23T12:24:49.136Z,604.42
2022-10-23T12:27:35.168Z,643.92
2022-10-23T12:30:16.478Z,350.48
2022-10-23T12:33:02.028Z,550.33
2022-10-23T12:35:51.059Z,692.00
2022-10-23T12:38:21.243Z,598.85
2022-10-23T12:40:54.608Z,714.50
2022-10-23T12:43:26.776Z,601.20
2022-10-23T12:45:56.288Z,626.55
2022-10-23T12:48:26.173Z,691.17
2022-10-23T12:50:56.087Z,572.75
2022-10-23T12:53:24.719Z,382.60
2022-10-23T12:55:57.107Z,615.88
2022-10-23T12:58:27.247Z,682.85
2022-10-23T13:00:58.055Z,548.85
2022-10-23T13:03:28.841Z,683.03
2022-10-23T13:05:59.722Z,641.70
2022-10-23T13:08:33.953Z,689.10
2022-10-23T13:11:02.193Z,658.15
2022-10-23T13:13:30.434Z,648.13
2022-10-23T13:15:58.557Z,537.03
2022-10-23T13:18:27.956Z,500.30
2022-10-23T13:23:35.173Z,681.75
2022-10-23T13:26:05.789Z,707.80
2022-10-23T13:28:35.872Z,587.67
2022-10-23T13:31:25.482Z,663.30
2022-10-23T13:34:17.246Z,667.63
2022-10-23T13:36:56.002Z,621.03
2022-10-23T13:39:26.040Z,534.58
2022-10-23T13:41:54.135Z,534.58
2022-10-23T13:44:23.747Z,607.45
2022-10-23T13:46:53.125Z,595.60
2022-10-23T13:49:22.520Z,590.35
2022-10-23T13:51:52.700Z,587.10
2022-10-23T13:54:23.124Z,739.05
2022-10-23T13:56:51.946Z,498.27
2022-10-23T13:59:20.063Z,683.33
2022-10-23T14:01:49.589Z,586.20
2022-10-23T14:04:18.795Z,646.85
2022-10-23T14:06:48.453Z,639.08
2022-10-23T14:09:18.684Z,647.50
2022-10-23T14:11:47.793Z,587.65
2022-10-23T14:14:15.905Z,351.80
2022-10-23T14:16:43.995Z,650.63
2022-10-23T14:19:12.820Z,666.20
2022-10-23T14:21:40.872Z,555.38
2022-10-23T14:24:10.326Z,710.08
2022-10-23T14:26:38.600Z,613.80
2022-10-23T14:29:09.875Z,611.72
2022-10-23T14:31:41.985Z,629.28
2022-10-23T14:34:10.041Z,615.03
2022-10-23T14:36:49.499Z,578.65
2022-10-23T14:39:19.553Z,638.08
2022-10-23T14:41:47.788Z,522.90
2022-10-23T14:44:15.853Z,666.38
2022-10-23T14:46:43.918Z,589.00
2022-10-23T14:49:11.906Z,710.72
2022-10-23T14:51:39.985Z,434.52
2022-10-23T14:54:08.958Z,674.17
2022-10-23T14:56:40.823Z,526.92
2022-10-23T14:59:10.763Z,627.60
2022-10-23T15:01:45.077Z,707.88
2022-10-23T15:04:15.966Z,410.48
2022-10-23T15:06:45.154Z,718.42
2022-10-23T15:09:13.309Z,698.97
2022-10-23T15:11:43.538Z,491.88
2022-10-23T15:14:11.652Z,559.72
2022-10-23T15:16:41.660Z,521.55
2022-10-23T15:19:13.634Z,560.53
2022-10-23T15:21:45.668Z,550.53
2022-10-23T15:24:13.751Z,638.25
2022-10-23T15:26:44.383Z,584.17
2022-10-23T15:29:12.932Z,551.00
2022-10-23T15:31:46.576Z,502.13
2022-10-23T15:34:17.704Z,571.22
2022-10-23T15:36:47.021Z,423.55
2022-10-23T15:39:17.349Z,489.35
2022-10-23T15:41:46.981Z,577.78
2022-10-23T15:44:17.851Z,414.55
2022-10-23T15:46:46.035Z,458.25
2022-10-23T15:49:14.244Z,368.10
2022-10-23T15:51:43.466Z,575.75
2022-10-23T15:54:16.579Z,498.02
2022-10-23T15:56:47.715Z,573.97
2022-10-23T15:59:16.296Z,616.50
2022-10-23T16:01:44.446Z,386.17
2022-10-23T16:04:12.609Z,642.60
2022-10-23T16:06:40.730Z,582.30
2022-10-23T16:09:08.796Z,530.10
2022-10-23T16:11:38.596Z,539.65
2022-10-23T16:14:09.122Z,459.38
2022-10-23T16:16:37.139Z,552.92
2022-10-23T16:19:06.328Z,168.38
2022-10-23T16:21:36.579Z,497.00
2022-10-23T16:24:06.611Z,477.55
2022-10-23T16:26:35.159Z,239.35
2022-10-23T16:29:05.357Z,422.65
2022-10-23T16:31:35.483Z,332.80
2022-10-23T16:34:04.717Z,514.83
2022-10-23T16:36:32.900Z,268.25
2022-10-23T16:39:02.863Z,682.15
2022-10-23T16:41:30.916Z,766.15
2022-10-23T16:43:59.006Z,373.77
2022-10-23T16:46:27.127Z,551.58
2022-10-23T16:48:56.804Z,676.63
2022-10-23T16:51:27.040Z,540.47
2022-10-23T16:53:55.250Z,379.65
2022-10-23T16:56:25.573Z,262.50
2022-10-23T16:58:53.639Z,609.85
2022-10-23T17:01:23.324Z,503.77
2022-10-23T17:03:52.994Z,527.45
2022-10-23T17:06:24.025Z,420.45
2022-10-23T17:08:52.311Z,470.15
2022-10-23T17:11:22.539Z,347.15
2022-10-23T17:13:55.709Z,348.13
2022-10-23T17:16:28.795Z,174.55
2022-10-23T17:18:56.855Z,484.57
2022-10-23T17:21:26.472Z,668.47
2022-10-23T17:23:54.651Z,132.37
2022-10-23T17:26:23.546Z,500.90
2022-10-23T17:28:51.594Z,444.83
2022-10-23T17:31:22.110Z,670.70
2022-10-23T17:33:52.790Z,464.27
2022-10-23T17:36:22.114Z,555.67
2022-10-23T17:38:51.597Z,606.80
2022-10-23T17:41:21.649Z,462.00
2022-10-23T17:43:49.693Z,209.10
2022-10-23T17:46:19.617Z,413.98
2022-10-23T17:48:47.716Z,357.85
2022-10-23T17:51:17.940Z,443.42
2022-10-23T17:53:47.903Z,427.63
2022-10-23T17:56:20.008Z,460.27
2022-10-23T17:58:48.096Z,406.33
2022-10-23T18:01:19.101Z,437.43
2022-10-23T18:03:47.782Z,327.02
2022-10-23T18:06:18.656Z,333.43
2022-10-23T18:08:47.546Z,331.47
2022-10-23T18:11:19.792Z,508.23
2022-10-23T18:13:48.190Z,498.75
2022-10-23T18:16:16.694Z,597.57
2022-10-23T18:18:48.095Z,698.43
2022-10-23T18:21:17.834Z,474.45
2022-10-23T18:23:46.290Z,487.52
2022-10-23T18:26:17.896Z,358.40
2022-10-23T18:28:47.268Z,461.80
2022-10-23T18:31:17.307Z,134.15
2022-10-23T18:33:45.631Z,427.73
2022-10-23T18:36:15.862Z,471.33
2022-10-23T18:38:44.573Z,530.70
2022-10-23T18:41:12.963Z,560.65
2022-10-23T18:43:44.011Z,572.60
2022-10-23T18:46:12.820Z,175.53
2022-10-23T18:48:41.308Z,394.20
2022-10-23T18:51:15.838Z,376.43
2022-10-23T18:53:46.703Z,300.17
2022-10-23T18:56:16.122Z,407.13
2022-10-23T18:58:45.474Z,321.63
2022-10-23T19:01:13.597Z,376.80
2022-10-23T19:03:42.191Z,396.10
2022-10-23T19:06:10.551Z,332.53
2022-10-23T19:08:40.018Z,306.85
2022-10-23T19:11:09.353Z,315.80
2022-10-23T19:13:39.537Z,279.73
2022-10-23T19:16:16.139Z,293.43
2022-10-23T19:18:47.892Z,197.40
2022-10-23T19:21:17.707Z,411.43
2022-10-23T19:23:45.895Z,346.47
2022-10-23T19:26:14.928Z,431.60
2022-10-23T19:28:46.829Z,497.00
2022-10-23T19:31:16.578Z,429.53
2022-10-23T19:33:44.627Z,450.47
2022-10-23T19:36:14.467Z,302.87
2022-10-23T19:38:42.750Z,345.80
2022-10-23T19:41:10.820Z,371.27
2022-10-23T19:43:38.825Z,257.70
2022-10-23T19:46:10.980Z,321.30
2022-10-23T19:48:44.494Z,316.50
2022-10-23T19:51:13.911Z,382.25
2022-10-23T19:53:43.036Z,284.83
2022-10-23T19:56:13.020Z,375.57
2022-10-23T19:58:41.632Z,405.30
2022-10-23T20:01:11.585Z,412.97
2022-10-23T20:03:41.909Z,373.33
2022-10-23T20:06:11.496Z,408.93
2022-10-23T20:08:40.150Z,376.93
2022-10-23T20:11:08.922Z,234.67
2022-10-23T20:13:37.574Z,260.97
2022-10-23T20:16:05.923Z,162.97
2022-10-23T20:18:33.943Z,215.10
2022-10-23T20:21:03.846Z,302.73
2022-10-23T20:23:31.915Z,327.50
2022-10-23T20:26:05.754Z,306.17
2022-10-23T20:28:34.215Z,131.43
2022-10-23T20:31:06.248Z,211.20
2022-10-23T20:33:34.389Z,242.33
2022-10-23T20:36:04.274Z,245.07
2022-10-23T20:38:32.480Z,205.10
2022-10-23T20:41:05.562Z,175.23
2022-10-23T20:43:34.669Z,124.60
2022-10-23T20:46:05.098Z,384.83
2022-10-23T20:48:35.857Z,395.73
2022-10-23T20:51:06.589Z,471.63
2022-10-23T20:53:36.983Z,293.53
2022-10-23T20:56:07.028Z,350.90
2022-10-23T20:58:35.382Z,413.23
2022-10-23T21:01:04.741Z,449.00
2022-10-23T21:03:33.134Z,136.97
2022-10-23T21:06:07.058Z,545.27
2022-10-23T21:08:35.877Z,334.20
2022-10-23T21:11:04.046Z,259.60
2022-10-23T21:13:33.848Z,265.23
2022-10-23T21:16:01.895Z,427.73
2022-10-23T21:18:44.943Z,410.90
2022-10-23T21:21:17.321Z,350.70
2022-10-23T21:23:45.345Z,412.87
2022-10-23T21:26:14.012Z,262.30
2022-10-23T21:28:47.387Z,390.30
2022-10-23T21:31:24.684Z,460.20
2022-10-23T21:33:53.941Z,418.20
2022-10-23T21:36:25.138Z,366.50
2022-10-23T21:38:55.178Z,298.83
2022-10-23T21:41:25.131Z,378.63
2022-10-23T21:43:54.859Z,407.10
2022-10-23T21:46:24.192Z,241.00
2022-10-23T21:48:53.097Z,440.05
2022-10-23T21:51:25.942Z,401.52
2022-10-23T21:53:54.886Z,515.65
2022-10-23T21:56:29.981Z,384.45
2022-10-23T21:58:59.035Z,483.90
2022-10-23T22:01:27.362Z,406.08
2022-10-23T22:03:55.875Z,357.92
2022-10-23T22:06:28.486Z,375.50
2022-10-23T22:08:58.532Z,616.85
2022-10-23T22:11:27.255Z,381.08
2022-10-23T22:13:55.693Z,492.52
2022-10-23T22:16:24.140Z,257.27
2022-10-23T22:18:52.416Z,317.90
2022-10-23T22:21:22.327Z,363.50
2022-10-23T22:23:52.649Z,406.73
2022-10-23T22:26:24.605Z,314.30
2022-10-23T22:28:54.190Z,421.40
2022-10-23T22:31:23.792Z,386.13
2022-10-23T22:33:52.130Z,446.20
2022-10-23T22:36:20.569Z,389.70
2022-10-23T22:38:49.127Z,335.67
2022-10-23T22:41:18.821Z,484.60
2022-10-23T22:43:47.054Z,349.30
2022-10-23T22:46:17.459Z,385.77
2022-10-23T22:48:46.622Z,422.30
2022-10-23T22:51:16.567Z,274.10
2022-10-23T22:53:45.148Z,436.30
2022-10-23T22:56:15.833Z,426.40
2022-10-23T22:58:45.876Z,365.27
2022-10-23T23:01:17.918Z,574.25
2022-10-23T23:03:46.670Z,316.92
2022-10-23T23:06:15.414Z,574.00
2022-10-23T23:08:44.109Z,312.23
2022-10-23T23:11:14.807Z,287.42
2022-10-23T23:13:44.762Z,534.15
2022-10-23T23:16:21.922Z,431.20
2022-10-23T23:18:50.497Z,440.92
2022-10-23T23:21:19.818Z,329.40
2022-10-23T23:23:48.483Z,485.65
2022-10-23T23:26:17.338Z,473.63
2022-10-23T23:28:46.818Z,430.65
2022-10-23T23:31:19.164Z,377.20
2022-10-23T23:33:47.314Z,385.48
2022-10-23T23:36:19.061Z,227.40
2022-10-23T23:38:47.259Z,344.02
2022-10-23T23:41:17.112Z,371.92
2022-10-23T23:43:46.887Z,341.83
2022-10-23T23:46:15.737Z,389.95
2022-10-23T23:48:48.022Z,325.08
2022-10-23T23:51:16.368Z,321.77
2022-10-23T23:53:44.415Z,223.43
2022-10-23T23:56:12.473Z,470.48
2022-10-23T23:58:40.882Z,349.17
